sensor_id;sensor_type;location;lat;lon;timestamp;P1;durP1;ratioP1;P2;durP2;ratioP2
60352;SDS011;46196;52.970;6.954;2022-09-30T00:01:46;4.07;;;3.10;;
60352;SDS011;46196;52.970;6.954;2022-09-30T00:04:18;4.15;;;3.10;;
60352;SDS011;46196;52.970;6.954;2022-09-30T00:06:49;5.15;;;3.20;;
60352;SDS011;46196;52.970;6.954;2022-09-30T00:09:16;4.85;;;3.50;;
60352;SDS011;46196;52.970;6.954;2022-09-30T00:11:42;5.15;;;3.15;;
60352;SDS011;46196;52.970;6.954;2022-09-30T00:14:13;5.20;;;3.35;;
60352;SDS011;46196;52.970;6.954;2022-09-30T00:16:41;4.88;;;3.60;;
60352;SDS011;46196;52.970;6.954;2022-09-30T00:19:08;3.90;;;3.20;;
60352;SDS011;46196;52.970;6.954;2022-09-30T00:21:34;3.88;;;3.40;;
60352;SDS011;46196;52.970;6.954;2022-09-30T00:24:00;5.07;;;3.47;;
60352;SDS011;46196;52.970;6.954;2022-09-30T00:33:57;3.50;;;2.92;;
60352;SDS011;46196;52.970;6.954;2022-09-30T00:36:45;4.70;;;3.38;;
60352;SDS011;46196;52.970;6.954;2022-09-30T00:39:14;4.40;;;3.80;;
60352;SDS011;46196;52.970;6.954;2022-09-30T00:53:00;6.78;;;3.67;;
60352;SDS011;46196;52.970;6.954;2022-09-30T00:58:39;4.15;;;3.42;;
60352;SDS011;46196;52.970;6.954;2022-09-30T01:01:13;5.07;;;3.47;;
60352;SDS011;46196;52.970;6.954;2022-09-30T01:06:35;4.90;;;3.55;;
60352;SDS011;46196;52.970;6.954;2022-09-30T01:09:02;3.80;;;3.22;;
60352;SDS011;46196;52.970;6.954;2022-09-30T01:11:28;4.35;;;3.50;;
60352;SDS011;46196;52.970;6.954;2022-09-30T01:13:59;4.05;;;3.20;;
60352;SDS011;46196;52.970;6.954;2022-09-30T01:16:36;3.95;;;3.55;;
60352;SDS011;46196;52.970;6.954;2022-09-30T01:24:55;3.85;;;3.38;;
60352;SDS011;46196;52.970;6.954;2022-09-30T01:27:43;3.95;;;3.28;;
60352;SDS011;46196;52.970;6.954;2022-09-30T01:33:34;4.00;;;3.13;;
60352;SDS011;46196;52.970;6.954;2022-09-30T01:44:36;5.40;;;3.47;;
60352;SDS011;46196;52.970;6.954;2022-09-30T01:47:16;4.28;;;3.22;;
60352;SDS011;46196;52.970;6.954;2022-09-30T01:55:17;4.82;;;3.95;;
60352;SDS011;46196;52.970;6.954;2022-09-30T02:00:30;4.93;;;4.25;;
60352;SDS011;46196;52.970;6.954;2022-09-30T02:03:01;4.95;;;4.10;;
60352;SDS011;46196;52.970;6.954;2022-09-30T02:08:14;4.35;;;3.95;;
60352;SDS011;46196;52.970;6.954;2022-09-30T02:10:41;4.87;;;4.00;;
60352;SDS011;46196;52.970;6.954;2022-09-30T02:13:15;4.05;;;3.58;;
60352;SDS011;46196;52.970;6.954;2022-09-30T02:15:50;4.05;;;3.58;;
60352;SDS011;46196;52.970;6.954;2022-09-30T02:18:27;4.65;;;3.92;;
60352;SDS011;46196;52.970;6.954;2022-09-30T02:21:03;4.32;;;3.80;;
60352;SDS011;46196;52.970;6.954;2022-09-30T02:23:32;5.20;;;3.90;;
60352;SDS011;46196;52.970;6.954;2022-09-30T02:26:06;4.70;;;3.70;;
60352;SDS011;46196;52.970;6.954;2022-09-30T02:28:38;6.03;;;3.88;;
60352;SDS011;46196;52.970;6.954;2022-09-30T02:31:08;6.07;;;4.60;;
60352;SDS011;46196;52.970;6.954;2022-09-30T02:42:07;7.53;;;4.90;;
60352;SDS011;46196;52.970;6.954;2022-09-30T02:44:59;9.43;;;5.22;;
60352;SDS011;46196;52.970;6.954;2022-09-30T02:57:56;4.43;;;3.50;;
60352;SDS011;46196;52.970;6.954;2022-09-30T03:00:39;6.05;;;4.13;;
60352;SDS011;46196;52.970;6.954;2022-09-30T03:03:10;4.90;;;4.10;;
60352;SDS011;46196;52.970;6.954;2022-09-30T03:05:40;4.50;;;3.90;;
60352;SDS011;46196;52.970;6.954;2022-09-30T03:08:07;5.45;;;4.35;;
60352;SDS011;46196;52.970;6.954;2022-09-30T03:10:32;5.35;;;4.53;;
60352;SDS011;46196;52.970;6.954;2022-09-30T03:26:17;8.02;;;5.28;;
60352;SDS011;46196;52.970;6.954;2022-09-30T03:34:28;7.40;;;5.03;;
60352;SDS011;46196;52.970;6.954;2022-09-30T03:37:16;9.95;;;4.88;;
60352;SDS011;46196;52.970;6.954;2022-09-30T03:40:04;7.40;;;4.80;;
60352;SDS011;46196;52.970;6.954;2022-09-30T03:42:55;61.90;;;7.68;;
60352;SDS011;46196;52.970;6.954;2022-09-30T03:45:54;7.65;;;4.50;;
60352;SDS011;46196;52.970;6.954;2022-09-30T03:48:27;31.42;;;6.28;;
60352;SDS011;46196;52.970;6.954;2022-09-30T03:50:55;15.82;;;5.07;;
60352;SDS011;46196;52.970;6.954;2022-09-30T03:53:23;7.25;;;4.40;;
60352;SDS011;46196;52.970;6.954;2022-09-30T03:55:50;4.95;;;4.00;;
60352;SDS011;46196;52.970;6.954;2022-09-30T03:58:17;18.02;;;4.53;;
60352;SDS011;46196;52.970;6.954;2022-09-30T04:00:47;17.73;;;4.57;;
60352;SDS011;46196;52.970;6.954;2022-09-30T04:03:17;4.78;;;3.95;;
60352;SDS011;46196;52.970;6.954;2022-09-30T04:05:44;4.20;;;3.60;;
60352;SDS011;46196;52.970;6.954;2022-09-30T04:08:10;5.75;;;3.67;;
60352;SDS011;46196;52.970;6.954;2022-09-30T04:10:38;4.43;;;3.88;;
60352;SDS011;46196;52.970;6.954;2022-09-30T04:13:10;4.72;;;3.85;;
60352;SDS011;46196;52.970;6.954;2022-09-30T04:15:36;5.28;;;4.10;;
60352;SDS011;46196;52.970;6.954;2022-09-30T04:18:03;5.45;;;4.55;;
60352;SDS011;46196;52.970;6.954;2022-09-30T04:20:29;4.82;;;4.00;;
60352;SDS011;46196;52.970;6.954;2022-09-30T04:22:56;6.10;;;4.72;;
60352;SDS011;46196;52.970;6.954;2022-09-30T04:25:23;13.52;;;4.68;;
60352;SDS011;46196;52.970;6.954;2022-09-30T04:27:49;9.35;;;5.15;;
60352;SDS011;46196;52.970;6.954;2022-09-30T04:30:15;5.18;;;4.47;;
60352;SDS011;46196;52.970;6.954;2022-09-30T04:32:41;7.50;;;4.68;;
60352;SDS011;46196;52.970;6.954;2022-09-30T04:35:13;6.22;;;4.85;;
60352;SDS011;46196;52.970;6.954;2022-09-30T04:40:11;6.78;;;4.68;;
60352;SDS011;46196;52.970;6.954;2022-09-30T04:42:38;6.30;;;4.75;;
60352;SDS011;46196;52.970;6.954;2022-09-30T04:45:07;5.37;;;4.40;;
60352;SDS011;46196;52.970;6.954;2022-09-30T04:47:34;6.78;;;4.65;;
60352;SDS011;46196;52.970;6.954;2022-09-30T04:50:00;6.60;;;4.30;;
60352;SDS011;46196;52.970;6.954;2022-09-30T04:52:26;5.70;;;4.78;;
60352;SDS011;46196;52.970;6.954;2022-09-30T04:54:51;11.38;;;4.60;;
60352;SDS011;46196;52.970;6.954;2022-09-30T04:57:18;9.10;;;4.28;;
60352;SDS011;46196;52.970;6.954;2022-09-30T04:59:44;5.85;;;4.07;;
60352;SDS011;46196;52.970;6.954;2022-09-30T05:02:10;12.07;;;4.63;;
60352;SDS011;46196;52.970;6.954;2022-09-30T05:04:37;5.47;;;4.18;;
60352;SDS011;46196;52.970;6.954;2022-09-30T05:07:03;13.10;;;4.70;;
60352;SDS011;46196;52.970;6.954;2022-09-30T05:09:33;7.68;;;5.05;;
60352;SDS011;46196;52.970;6.954;2022-09-30T05:11:59;14.43;;;5.00;;
60352;SDS011;46196;52.970;6.954;2022-09-30T05:14:27;13.90;;;5.20;;
60352;SDS011;46196;52.970;6.954;2022-09-30T05:16:53;19.25;;;5.10;;
60352;SDS011;46196;52.970;6.954;2022-09-30T05:19:19;33.70;;;5.43;;
60352;SDS011;46196;52.970;6.954;2022-09-30T05:21:45;14.77;;;4.38;;
60352;SDS011;46196;52.970;6.954;2022-09-30T05:24:11;9.88;;;5.00;;
60352;SDS011;46196;52.970;6.954;2022-09-30T05:26:37;17.00;;;5.07;;
60352;SDS011;46196;52.970;6.954;2022-09-30T05:29:04;28.17;;;5.95;;
60352;SDS011;46196;52.970;6.954;2022-09-30T05:31:31;21.65;;;5.00;;
60352;SDS011;46196;52.970;6.954;2022-09-30T05:33:58;22.65;;;5.10;;
60352;SDS011;46196;52.970;6.954;2022-09-30T05:36:23;13.93;;;5.43;;
60352;SDS011;46196;52.970;6.954;2022-09-30T05:38:50;67.25;;;7.70;;
60352;SDS011;46196;52.970;6.954;2022-09-30T05:41:16;27.63;;;6.63;;
60352;SDS011;46196;52.970;6.954;2022-09-30T05:43:45;15.27;;;5.28;;
60352;SDS011;46196;52.970;6.954;2022-09-30T05:46:12;24.52;;;5.35;;
60352;SDS011;46196;52.970;6.954;2022-09-30T05:48:38;22.15;;;10.35;;
60352;SDS011;46196;52.970;6.954;2022-09-30T05:51:04;24.90;;;8.70;;
60352;SDS011;46196;52.970;6.954;2022-09-30T05:53:31;20.45;;;6.30;;
60352;SDS011;46196;52.970;6.954;2022-09-30T05:56:03;32.15;;;5.97;;
60352;SDS011;46196;52.970;6.954;2022-09-30T05:58:29;23.55;;;6.10;;
60352;SDS011;46196;52.970;6.954;2022-09-30T06:00:55;13.07;;;5.25;;
60352;SDS011;46196;52.970;6.954;2022-09-30T06:03:21;5.35;;;4.85;;
60352;SDS011;46196;52.970;6.954;2022-09-30T06:05:47;9.75;;;4.82;;
60352;SDS011;46196;52.970;6.954;2022-09-30T06:08:19;8.95;;;4.68;;
60352;SDS011;46196;52.970;6.954;2022-09-30T06:10:44;8.38;;;4.72;;
60352;SDS011;46196;52.970;6.954;2022-09-30T06:13:10;9.82;;;5.15;;
60352;SDS011;46196;52.970;6.954;2022-09-30T06:15:36;5.63;;;5.03;;
60352;SDS011;46196;52.970;6.954;2022-09-30T06:18:03;7.60;;;5.10;;
60352;SDS011;46196;52.970;6.954;2022-09-30T06:20:29;7.22;;;5.15;;
60352;SDS011;46196;52.970;6.954;2022-09-30T06:22:57;7.78;;;5.50;;
60352;SDS011;46196;52.970;6.954;2022-09-30T06:25:24;7.22;;;5.88;;
60352;SDS011;46196;52.970;6.954;2022-09-30T06:27:52;11.75;;;5.90;;
60352;SDS011;46196;52.970;6.954;2022-09-30T06:30:18;12.77;;;6.88;;
60352;SDS011;46196;52.970;6.954;2022-09-30T06:32:44;10.27;;;6.55;;
60352;SDS011;46196;52.970;6.954;2022-09-30T06:35:10;6.70;;;6.10;;
60352;SDS011;46196;52.970;6.954;2022-09-30T06:37:36;6.55;;;5.90;;
60352;SDS011;46196;52.970;6.954;2022-09-30T06:40:03;6.93;;;6.28;;
60352;SDS011;46196;52.970;6.954;2022-09-30T06:42:30;7.70;;;7.00;;
60352;SDS011;46196;52.970;6.954;2022-09-30T06:44:56;7.22;;;6.53;;
60352;SDS011;46196;52.970;6.954;2022-09-30T06:47:22;7.70;;;6.90;;
60352;SDS011;46196;52.970;6.954;2022-09-30T06:49:48;7.57;;;6.78;;
60352;SDS011;46196;52.970;6.954;2022-09-30T06:52:17;7.30;;;6.60;;
60352;SDS011;46196;52.970;6.954;2022-09-30T06:54:44;7.85;;;7.05;;
60352;SDS011;46196;52.970;6.954;2022-09-30T06:57:11;8.82;;;8.02;;
60352;SDS011;46196;52.970;6.954;2022-09-30T06:59:37;7.95;;;7.18;;
60352;SDS011;46196;52.970;6.954;2022-09-30T07:02:03;8.18;;;7.47;;
60352;SDS011;46196;52.970;6.954;2022-09-30T07:04:30;9.07;;;8.18;;
60352;SDS011;46196;52.970;6.954;2022-09-30T07:06:56;8.68;;;7.72;;
60352;SDS011;46196;52.970;6.954;2022-09-30T07:09:22;10.55;;;9.45;;
60352;SDS011;46196;52.970;6.954;2022-09-30T07:11:48;11.38;;;10.15;;
60352;SDS011;46196;52.970;6.954;2022-09-30T07:14:15;11.73;;;10.38;;
60352;SDS011;46196;52.970;6.954;2022-09-30T07:16:41;12.27;;;10.98;;
60352;SDS011;46196;52.970;6.954;2022-09-30T07:19:09;12.35;;;10.43;;
60352;SDS011;46196;52.970;6.954;2022-09-30T07:21:35;12.57;;;10.93;;
60352;SDS011;46196;52.970;6.954;2022-09-30T07:24:01;13.50;;;10.63;;
60352;SDS011;46196;52.970;6.954;2022-09-30T07:26:27;14.18;;;11.60;;
60352;SDS011;46196;52.970;6.954;2022-09-30T07:28:55;17.58;;;13.45;;
60352;SDS011;46196;52.970;6.954;2022-09-30T07:31:22;14.90;;;11.77;;
60352;SDS011;46196;52.970;6.954;2022-09-30T07:33:50;15.52;;;11.57;;
60352;SDS011;46196;52.970;6.954;2022-09-30T07:36:17;14.82;;;11.77;;
60352;SDS011;46196;52.970;6.954;2022-09-30T07:38:47;14.40;;;12.00;;
60352;SDS011;46196;52.970;6.954;2022-09-30T07:41:17;18.20;;;11.93;;
60352;SDS011;46196;52.970;6.954;2022-09-30T07:43:46;13.05;;;11.38;;
60352;SDS011;46196;52.970;6.954;2022-09-30T07:46:14;16.15;;;12.05;;
60352;SDS011;46196;52.970;6.954;2022-09-30T07:48:43;16.65;;;12.95;;
60352;SDS011;46196;52.970;6.954;2022-09-30T07:51:28;21.88;;;15.90;;
60352;SDS011;46196;52.970;6.954;2022-09-30T07:54:08;18.00;;;13.02;;
60352;SDS011;46196;52.970;6.954;2022-09-30T07:56:37;15.70;;;12.55;;
60352;SDS011;46196;52.970;6.954;2022-09-30T07:59:05;15.73;;;12.57;;
60352;SDS011;46196;52.970;6.954;2022-09-30T08:01:32;13.57;;;11.20;;
60352;SDS011;46196;52.970;6.954;2022-09-30T08:04:00;14.15;;;10.18;;
60352;SDS011;46196;52.970;6.954;2022-09-30T08:06:29;8.80;;;7.82;;
60352;SDS011;46196;52.970;6.954;2022-09-30T08:08:56;9.30;;;7.93;;
60352;SDS011;46196;52.970;6.954;2022-09-30T08:11:23;9.40;;;7.28;;
60352;SDS011;46196;52.970;6.954;2022-09-30T08:13:50;8.52;;;7.25;;
60352;SDS011;46196;52.970;6.954;2022-09-30T08:16:20;9.50;;;7.50;;
60352;SDS011;46196;52.970;6.954;2022-09-30T08:18:48;7.90;;;7.07;;
60352;SDS011;46196;52.970;6.954;2022-09-30T08:21:13;8.55;;;7.32;;
60352;SDS011;46196;52.970;6.954;2022-09-30T08:23:40;8.65;;;6.72;;
60352;SDS011;46196;52.970;6.954;2022-09-30T08:26:10;8.32;;;6.88;;
60352;SDS011;46196;52.970;6.954;2022-09-30T08:28:38;6.93;;;6.07;;
60352;SDS011;46196;52.970;6.954;2022-09-30T08:31:09;7.38;;;6.45;;
60352;SDS011;46196;52.970;6.954;2022-09-30T08:33:37;8.48;;;7.05;;
60352;SDS011;46196;52.970;6.954;2022-09-30T08:36:04;8.70;;;7.80;;
60352;SDS011;46196;52.970;6.954;2022-09-30T08:38:32;8.73;;;7.57;;
60352;SDS011;46196;52.970;6.954;2022-09-30T08:43:53;8.82;;;7.80;;
60352;SDS011;46196;52.970;6.954;2022-09-30T08:51:38;7.00;;;5.88;;
60352;SDS011;46196;52.970;6.954;2022-09-30T08:54:13;8.18;;;6.30;;
60352;SDS011;46196;52.970;6.954;2022-09-30T08:56:43;7.38;;;6.57;;
60352;SDS011;46196;52.970;6.954;2022-09-30T09:02:32;5.93;;;4.95;;
60352;SDS011;46196;52.970;6.954;2022-09-30T09:04:56;6.28;;;5.38;;
60352;SDS011;46196;52.970;6.954;2022-09-30T09:21:33;6.85;;;4.80;;
60352;SDS011;46196;52.970;6.954;2022-09-30T09:24:29;6.15;;;5.40;;
60352;SDS011;46196;52.970;6.954;2022-09-30T09:27:29;5.47;;;4.85;;
60352;SDS011;46196;52.970;6.954;2022-09-30T09:30:20;6.20;;;5.28;;
60352;SDS011;46196;52.970;6.954;2022-09-30T09:32:51;6.30;;;4.93;;
60352;SDS011;46196;52.970;6.954;2022-09-30T09:35:26;5.45;;;4.47;;
60352;SDS011;46196;52.970;6.954;2022-09-30T09:46:26;5.30;;;4.20;;
60352;SDS011;46196;52.970;6.954;2022-09-30T09:51:46;5.82;;;4.20;;
60352;SDS011;46196;52.970;6.954;2022-09-30T09:54:25;4.80;;;3.75;;
60352;SDS011;46196;52.970;6.954;2022-09-30T09:57:15;5.47;;;3.75;;
60352;SDS011;46196;52.970;6.954;2022-09-30T09:59:53;5.37;;;4.60;;
60352;SDS011;46196;52.970;6.954;2022-09-30T10:02:29;4.95;;;3.85;;
60352;SDS011;46196;52.970;6.954;2022-09-30T10:04:56;7.75;;;4.18;;
60352;SDS011;46196;52.970;6.954;2022-09-30T10:07:27;4.75;;;3.85;;
60352;SDS011;46196;52.970;6.954;2022-09-30T10:10:07;4.65;;;3.40;;
60352;SDS011;46196;52.970;6.954;2022-09-30T10:12:41;5.20;;;3.83;;
60352;SDS011;46196;52.970;6.954;2022-09-30T10:15:13;3.72;;;3.20;;
60352;SDS011;46196;52.970;6.954;2022-09-30T10:17:51;4.70;;;3.35;;
60352;SDS011;46196;52.970;6.954;2022-09-30T10:20:25;5.03;;;3.50;;
60352;SDS011;46196;52.970;6.954;2022-09-30T10:23:14;4.10;;;3.60;;
60352;SDS011;46196;52.970;6.954;2022-09-30T10:25:53;3.85;;;3.33;;
60352;SDS011;46196;52.970;6.954;2022-09-30T10:28:25;3.95;;;3.03;;
60352;SDS011;46196;52.970;6.954;2022-09-30T10:33:25;4.10;;;3.22;;
60352;SDS011;46196;52.970;6.954;2022-09-30T10:36:05;4.68;;;3.78;;
60352;SDS011;46196;52.970;6.954;2022-09-30T10:39:15;4.05;;;3.47;;
60352;SDS011;46196;52.970;6.954;2022-09-30T10:41:33;4.13;;;3.33;;
60352;SDS011;46196;52.970;6.954;2022-09-30T10:44:02;4.03;;;2.97;;
60352;SDS011;46196;52.970;6.954;2022-09-30T10:48:59;4.13;;;3.50;;
60352;SDS011;46196;52.970;6.954;2022-09-30T10:51:53;5.43;;;3.10;;
60352;SDS011;46196;52.970;6.954;2022-09-30T10:57:15;4.07;;;3.35;;
60352;SDS011;46196;52.970;6.954;2022-09-30T10:59:44;3.60;;;3.00;;
60352;SDS011;46196;52.970;6.954;2022-09-30T11:02:22;5.47;;;3.30;;
60352;SDS011;46196;52.970;6.954;2022-09-30T11:07:53;5.68;;;3.55;;
60352;SDS011;46196;52.970;6.954;2022-09-30T11:10:40;4.47;;;3.60;;
60352;SDS011;46196;52.970;6.954;2022-09-30T11:16:04;5.10;;;3.83;;
60352;SDS011;46196;52.970;6.954;2022-09-30T11:26:50;3.83;;;3.42;;
60352;SDS011;46196;52.970;6.954;2022-09-30T11:32:14;5.10;;;4.60;;
60352;SDS011;46196;52.970;6.954;2022-09-30T11:35:13;5.82;;;4.57;;
60352;SDS011;46196;52.970;6.954;2022-09-30T12:05:25;5.50;;;4.03;;
60352;SDS011;46196;52.970;6.954;2022-09-30T12:11:01;5.50;;;3.72;;
60352;SDS011;46196;52.970;6.954;2022-09-30T12:13:34;4.68;;;3.00;;
60352;SDS011;46196;52.970;6.954;2022-09-30T12:16:21;4.20;;;3.67;;
60352;SDS011;46196;52.970;6.954;2022-09-30T12:18:50;4.97;;;4.45;;
60352;SDS011;46196;52.970;6.954;2022-09-30T12:21:22;5.78;;;4.03;;
60352;SDS011;46196;52.970;6.954;2022-09-30T12:26:29;4.95;;;4.00;;
60352;SDS011;46196;52.970;6.954;2022-09-30T12:28:56;6.15;;;4.55;;
60352;SDS011;46196;52.970;6.954;2022-09-30T12:32:01;6.72;;;5.03;;
60352;SDS011;46196;52.970;6.954;2022-09-30T12:40:30;5.60;;;4.60;;
60352;SDS011;46196;52.970;6.954;2022-09-30T12:48:26;7.63;;;5.90;;
60352;SDS011;46196;52.970;6.954;2022-09-30T12:51:03;7.47;;;6.60;;
60352;SDS011;46196;52.970;6.954;2022-09-30T12:53:31;6.40;;;5.80;;
60352;SDS011;46196;52.970;6.954;2022-09-30T12:56:09;6.97;;;6.00;;
60352;SDS011;46196;52.970;6.954;2022-09-30T12:58:47;6.63;;;5.80;;
60352;SDS011;46196;52.970;6.954;2022-09-30T13:06:26;6.05;;;5.38;;
60352;SDS011;46196;52.970;6.954;2022-09-30T13:11:47;6.93;;;5.85;;
60352;SDS011;46196;52.970;6.954;2022-09-30T13:19:35;7.88;;;5.78;;
60352;SDS011;46196;52.970;6.954;2022-09-30T13:35:30;7.18;;;6.03;;
60352;SDS011;46196;52.970;6.954;2022-09-30T13:40:43;8.48;;;7.65;;
60352;SDS011;46196;52.970;6.954;2022-09-30T13:45:58;7.95;;;6.45;;
60352;SDS011;46196;52.970;6.954;2022-09-30T13:48:31;7.97;;;6.70;;
60352;SDS011;46196;52.970;6.954;2022-09-30T13:50:59;7.40;;;6.70;;
60352;SDS011;46196;52.970;6.954;2022-09-30T13:56:07;8.02;;;7.22;;
60352;SDS011;46196;52.970;6.954;2022-09-30T14:12:09;8.10;;;7.40;;
60352;SDS011;46196;52.970;6.954;2022-09-30T14:20:11;8.35;;;7.55;;
60352;SDS011;46196;52.970;6.954;2022-09-30T14:22:50;8.40;;;7.60;;
60352;SDS011;46196;52.970;6.954;2022-09-30T14:25:17;9.57;;;7.78;;
60352;SDS011;46196;52.970;6.954;2022-09-30T14:27:53;9.93;;;7.88;;
60352;SDS011;46196;52.970;6.954;2022-09-30T14:30:31;8.80;;;7.90;;
60352;SDS011;46196;52.970;6.954;2022-09-30T14:36:01;8.35;;;7.55;;
60352;SDS011;46196;52.970;6.954;2022-09-30T14:38:30;9.15;;;8.25;;
60352;SDS011;46196;52.970;6.954;2022-09-30T14:40:59;9.57;;;7.55;;
60352;SDS011;46196;52.970;6.954;2022-09-30T14:43:34;8.57;;;7.60;;
60352;SDS011;46196;52.970;6.954;2022-09-30T14:46:05;8.48;;;7.60;;
60352;SDS011;46196;52.970;6.954;2022-09-30T14:48:37;8.65;;;7.40;;
60352;SDS011;46196;52.970;6.954;2022-09-30T14:51:10;7.63;;;6.93;;
60352;SDS011;46196;52.970;6.954;2022-09-30T14:53:39;8.10;;;7.30;;
60352;SDS011;46196;52.970;6.954;2022-09-30T14:56:19;8.65;;;6.90;;
60352;SDS011;46196;52.970;6.954;2022-09-30T14:58:46;7.85;;;7.15;;
60352;SDS011;46196;52.970;6.954;2022-09-30T15:01:16;8.57;;;7.30;;
60352;SDS011;46196;52.970;6.954;2022-09-30T15:04:04;9.63;;;7.78;;
60352;SDS011;46196;52.970;6.954;2022-09-30T15:06:37;8.27;;;7.47;;
60352;SDS011;46196;52.970;6.954;2022-09-30T15:09:12;8.00;;;7.20;;
60352;SDS011;46196;52.970;6.954;2022-09-30T15:12:01;8.60;;;7.70;;
60352;SDS011;46196;52.970;6.954;2022-09-30T15:17:24;10.07;;;9.02;;
60352;SDS011;46196;52.970;6.954;2022-09-30T15:19:52;9.40;;;8.55;;
60352;SDS011;46196;52.970;6.954;2022-09-30T15:22:19;9.05;;;8.15;;
60352;SDS011;46196;52.970;6.954;2022-09-30T15:24:47;7.80;;;6.93;;
60352;SDS011;46196;52.970;6.954;2022-09-30T15:27:20;8.48;;;7.68;;
60352;SDS011;46196;52.970;6.954;2022-09-30T15:30:03;9.98;;;9.07;;
60352;SDS011;46196;52.970;6.954;2022-09-30T15:32:55;10.70;;;9.60;;
60352;SDS011;46196;52.970;6.954;2022-09-30T15:35:25;9.90;;;8.93;;
60352;SDS011;46196;52.970;6.954;2022-09-30T15:37:52;9.38;;;8.52;;
60352;SDS011;46196;52.970;6.954;2022-09-30T15:40:18;9.15;;;8.25;;
60352;SDS011;46196;52.970;6.954;2022-09-30T15:43:06;8.75;;;7.68;;
60352;SDS011;46196;52.970;6.954;2022-09-30T15:48:04;9.25;;;8.35;;
60352;SDS011;46196;52.970;6.954;2022-09-30T15:53:05;8.30;;;7.50;;
60352;SDS011;46196;52.970;6.954;2022-09-30T15:58:27;8.65;;;7.75;;
60352;SDS011;46196;52.970;6.954;2022-09-30T16:03:52;9.55;;;8.65;;
60352;SDS011;46196;52.970;6.954;2022-09-30T16:06:24;10.65;;;8.98;;
60352;SDS011;46196;52.970;6.954;2022-09-30T16:08:51;9.85;;;8.85;;
60352;SDS011;46196;52.970;6.954;2022-09-30T16:11:27;11.57;;;9.40;;
60352;SDS011;46196;52.970;6.954;2022-09-30T16:14:06;9.95;;;9.05;;
60352;SDS011;46196;52.970;6.954;2022-09-30T16:16:35;10.95;;;9.85;;
60352;SDS011;46196;52.970;6.954;2022-09-30T16:19:03;10.30;;;9.30;;
60352;SDS011;46196;52.970;6.954;2022-09-30T16:21:38;10.18;;;9.18;;
60352;SDS011;46196;52.970;6.954;2022-09-30T16:29:47;9.98;;;8.80;;
60352;SDS011;46196;52.970;6.954;2022-09-30T16:32:13;10.02;;;9.13;;
60352;SDS011;46196;52.970;6.954;2022-09-30T16:34:39;8.65;;;7.78;;
60352;SDS011;46196;52.970;6.954;2022-09-30T16:37:11;10.15;;;9.20;;
60352;SDS011;46196;52.970;6.954;2022-09-30T16:39:38;10.48;;;8.80;;
60352;SDS011;46196;52.970;6.954;2022-09-30T16:42:04;9.50;;;8.60;;
60352;SDS011;46196;52.970;6.954;2022-09-30T16:44:30;10.48;;;9.23;;
60352;SDS011;46196;52.970;6.954;2022-09-30T16:47:02;9.67;;;8.80;;
60352;SDS011;46196;52.970;6.954;2022-09-30T16:49:28;10.57;;;9.57;;
60352;SDS011;46196;52.970;6.954;2022-09-30T16:51:54;8.98;;;8.10;;
60352;SDS011;46196;52.970;6.954;2022-09-30T16:54:20;10.30;;;8.50;;
60352;SDS011;46196;52.970;6.954;2022-09-30T16:56:46;8.18;;;7.30;;
60352;SDS011;46196;52.970;6.954;2022-09-30T16:59:13;9.90;;;7.75;;
60352;SDS011;46196;52.970;6.954;2022-09-30T17:01:40;8.60;;;7.80;;
60352;SDS011;46196;52.970;6.954;2022-09-30T17:04:06;8.73;;;7.93;;
60352;SDS011;46196;52.970;6.954;2022-09-30T17:06:33;8.20;;;7.40;;
60352;SDS011;46196;52.970;6.954;2022-09-30T17:09:00;7.93;;;7.13;;
60352;SDS011;46196;52.970;6.954;2022-09-30T17:11:30;9.88;;;7.10;;
60352;SDS011;46196;52.970;6.954;2022-09-30T17:13:59;8.15;;;7.35;;
60352;SDS011;46196;52.970;6.954;2022-09-30T17:16:26;8.10;;;7.30;;
60352;SDS011;46196;52.970;6.954;2022-09-30T17:18:52;9.20;;;7.68;;
60352;SDS011;46196;52.970;6.954;2022-09-30T17:21:19;7.97;;;7.18;;
60352;SDS011;46196;52.970;6.954;2022-09-30T17:23:47;8.25;;;7.45;;
60352;SDS011;46196;52.970;6.954;2022-09-30T17:26:13;9.45;;;7.00;;
60352;SDS011;46196;52.970;6.954;2022-09-30T17:28:39;9.15;;;7.50;;
60352;SDS011;46196;52.970;6.954;2022-09-30T17:31:06;7.93;;;7.18;;
60352;SDS011;46196;52.970;6.954;2022-09-30T17:33:34;8.00;;;7.30;;
60352;SDS011;46196;52.970;6.954;2022-09-30T17:36:05;8.43;;;7.20;;
60352;SDS011;46196;52.970;6.954;2022-09-30T17:38:34;7.88;;;7.18;;
60352;SDS011;46196;52.970;6.954;2022-09-30T17:41:00;9.07;;;8.15;;
60352;SDS011;46196;52.970;6.954;2022-09-30T17:43:45;9.82;;;7.75;;
60352;SDS011;46196;52.970;6.954;2022-09-30T17:46:12;8.13;;;7.40;;
60352;SDS011;46196;52.970;6.954;2022-09-30T17:48:43;8.40;;;7.57;;
60352;SDS011;46196;52.970;6.954;2022-09-30T17:51:10;9.50;;;7.57;;
60352;SDS011;46196;52.970;6.954;2022-09-30T17:53:36;8.30;;;7.50;;
60352;SDS011;46196;52.970;6.954;2022-09-30T17:56:18;8.30;;;7.50;;
60352;SDS011;46196;52.970;6.954;2022-09-30T17:58:46;8.75;;;7.93;;
60352;SDS011;46196;52.970;6.954;2022-09-30T18:01:15;8.77;;;7.90;;
60352;SDS011;46196;52.970;6.954;2022-09-30T18:03:42;8.15;;;7.35;;
60352;SDS011;46196;52.970;6.954;2022-09-30T18:06:09;8.27;;;7.43;;
60352;SDS011;46196;52.970;6.954;2022-09-30T18:08:35;9.70;;;8.85;;
60352;SDS011;46196;52.970;6.954;2022-09-30T18:11:01;8.07;;;7.28;;
60352;SDS011;46196;52.970;6.954;2022-09-30T18:13:26;7.85;;;7.05;;
60352;SDS011;46196;52.970;6.954;2022-09-30T18:15:54;8.50;;;7.00;;
60352;SDS011;46196;52.970;6.954;2022-09-30T18:18:25;7.63;;;6.90;;
60352;SDS011;46196;52.970;6.954;2022-09-30T18:20:52;7.97;;;6.72;;
60352;SDS011;46196;52.970;6.954;2022-09-30T18:23:18;7.32;;;6.28;;
60352;SDS011;46196;52.970;6.954;2022-09-30T18:25:47;7.25;;;6.00;;
60352;SDS011;46196;52.970;6.954;2022-09-30T18:28:13;7.35;;;5.50;;
60352;SDS011;46196;52.970;6.954;2022-09-30T18:30:40;6.30;;;5.70;;
60352;SDS011;46196;52.970;6.954;2022-09-30T18:33:06;6.30;;;5.40;;
60352;SDS011;46196;52.970;6.954;2022-09-30T18:35:33;8.13;;;5.90;;
60352;SDS011;46196;52.970;6.954;2022-09-30T18:38:00;7.35;;;5.82;;
60352;SDS011;46196;52.970;6.954;2022-09-30T18:40:27;6.88;;;5.72;;
60352;SDS011;46196;52.970;6.954;2022-09-30T18:42:58;5.85;;;5.35;;
60352;SDS011;46196;52.970;6.954;2022-09-30T18:45:30;6.75;;;6.05;;
60352;SDS011;46196;52.970;6.954;2022-09-30T18:47:57;6.25;;;5.65;;
60352;SDS011;46196;52.970;6.954;2022-09-30T18:50:24;7.10;;;5.80;;
60352;SDS011;46196;52.970;6.954;2022-09-30T18:52:52;7.53;;;5.57;;
60352;SDS011;46196;52.970;6.954;2022-09-30T18:55:18;6.22;;;5.63;;
60352;SDS011;46196;52.970;6.954;2022-09-30T18:57:44;5.82;;;5.18;;
60352;SDS011;46196;52.970;6.954;2022-09-30T19:00:14;6.43;;;5.65;;
60352;SDS011;46196;52.970;6.954;2022-09-30T19:02:41;6.60;;;5.82;;
60352;SDS011;46196;52.970;6.954;2022-09-30T19:05:09;7.20;;;5.80;;
60352;SDS011;46196;52.970;6.954;2022-09-30T19:07:36;6.82;;;5.85;;
60352;SDS011;46196;52.970;6.954;2022-09-30T19:10:03;7.40;;;5.88;;
60352;SDS011;46196;52.970;6.954;2022-09-30T19:12:34;6.50;;;5.78;;
60352;SDS011;46196;52.970;6.954;2022-09-30T19:15:04;7.10;;;6.30;;
60352;SDS011;46196;52.970;6.954;2022-09-30T19:17:32;6.95;;;6.18;;
60352;SDS011;46196;52.970;6.954;2022-09-30T19:19:58;7.10;;;6.40;;
60352;SDS011;46196;52.970;6.954;2022-09-30T19:22:25;7.13;;;6.43;;
60352;SDS011;46196;52.970;6.954;2022-09-30T19:24:52;7.57;;;6.72;;
60352;SDS011;46196;52.970;6.954;2022-09-30T19:27:18;7.25;;;6.50;;
60352;SDS011;46196;52.970;6.954;2022-09-30T19:29:46;7.45;;;6.43;;
60352;SDS011;46196;52.970;6.954;2022-09-30T19:32:12;7.95;;;6.63;;
60352;SDS011;46196;52.970;6.954;2022-09-30T19:34:39;8.60;;;7.70;;
60352;SDS011;46196;52.970;6.954;2022-09-30T19:37:06;8.15;;;6.38;;
60352;SDS011;46196;52.970;6.954;2022-09-30T19:39:32;9.75;;;6.55;;
60352;SDS011;46196;52.970;6.954;2022-09-30T19:41:58;7.03;;;6.30;;